Gables, Florida
Current Conditions -  °F | °C
As of 2:53 AM on Monday 22 Dec 2014 (Local Time) from KMIA Reporting Station
Broken Clouds Broken Clouds  
Wind Chill: 67°   Ceiling: 25000
Heat Index: 67°   Visibility: 10mi
Dew Point: 64°   Wind: 3mph
Humidity: 90%   Direction: 140°SE
Pressure: 30.02"   Gusts: NA
Location:  25.7478°N, 80.2598°W
Report Text: KMIA 220753Z 14003KT 10SM FEW023 SCT140 BKN250 19/18 A3002 RMK AO2 SLP167 98343 T01940178
Loading
Personal Weather Stations






























Interactive Weather Map New forecast layout! Learn more

10-Day Weather Forecast

Advertisements
Track Severe Weather on mobile